Time;durP1;ratioP1;P1;durP2;ratioP2;P2;SDS_P1;SDS_P2;PMS_P1;PMS_P2;Temp;Humidity;BMP_temperature;BMP_pressure;BME280_temperature;BME280_humidity;BME280_pressure;Samples;Min_cycle;Max_cycle;Signal;HPM_P1;HPM_P2
2021/08/24 00:00:29;;;;;;;18.13;7.43;;;;;;;17.25;80.04;101921.31;5033365;28;19947;-62
2021/08/24 00:02:59;;;;;;;17.42;7.57;;;;;;;17.17;79.84;101913.81;5034101;28;20056;-63
2021/08/24 00:05:34;;;;;;;18.35;7.38;;;;;;;17.37;79.04;101915.06;5016360;28;20054;-62
2021/08/24 00:08:05;;;;;;;18.08;8.13;;;;;;;17.13;79.64;101906.41;5016389;28;20049;-63
2021/08/24 00:10:40;;;;;;;14.88;7.60;;;;;;;17.13;79.92;101909.22;5032934;28;20053;-63
2021/08/24 00:13:07;;;;;;;18.88;9.00;;;;;;;17.02;80.46;101907.88;5023201;28;20057;-63
2021/08/24 00:15:35;;;;;;;18.52;7.35;;;;;;;16.83;82.30;101908.22;5054221;28;20056;-63
2021/08/24 00:18:03;;;;;;;16.52;8.02;;;;;;;16.95;81.77;101902.81;5054080;28;20065;-62
2021/08/24 00:20:31;;;;;;;22.60;8.32;;;;;;;17.14;80.97;101891.38;5019418;28;20055;-63
2021/08/24 00:23:05;;;;;;;25.75;7.88;;;;;;;17.23;80.32;101895.75;5053586;28;20048;-62
2021/08/24 00:25:33;;;;;;;17.85;7.93;;;;;;;17.17;80.60;101899.06;5036070;28;20061;-62
2021/08/24 00:28:00;;;;;;;19.02;8.27;;;;;;;17.19;80.65;101883.66;5053822;28;20048;-61
2021/08/24 00:30:28;;;;;;;17.50;9.65;;;;;;;17.16;81.11;101889.88;5053993;28;20192;-63
2021/08/24 00:32:56;;;;;;;21.77;9.45;;;;;;;17.05;81.46;101894.13;5053711;28;20052;-63
2021/08/24 00:35:23;;;;;;;19.52;9.65;;;;;;;17.02;81.82;101897.59;5052371;28;20048;-62
2021/08/24 00:37:51;;;;;;;24.42;10.50;;;;;;;16.70;83.76;101887.75;5053818;28;20048;-63
2021/08/24 00:40:19;;;;;;;19.75;9.98;;;;;;;16.97;82.56;101889.41;5052349;28;20045;-63
2021/08/24 00:42:46;;;;;;;21.88;10.20;;;;;;;17.04;82.08;101894.47;5052179;28;20049;-63
2021/08/24 00:45:15;;;;;;;25.52;11.75;;;;;;;17.14;81.91;101889.38;5052409;28;20496;-62
2021/08/24 00:47:44;;;;;;;24.67;11.48;;;;;;;17.11;81.96;101900.34;5051776;28;20060;-63
2021/08/24 00:50:17;;;;;;;26.50;12.87;;;;;;;16.71;83.87;101897.75;5035881;28;20060;-62
2021/08/24 00:52:47;;;;;;;20.38;12.23;;;;;;;16.79;84.00;101901.66;5053201;28;20283;-63
2021/08/24 00:55:16;;;;;;;26.27;12.80;;;;;;;16.76;83.99;101896.75;5053370;28;20044;-62
2021/08/24 00:57:54;;;;;;;24.90;12.48;;;;;;;16.62;85.02;101896.09;5053633;28;20052;-62
2021/08/24 01:00:22;;;;;;;24.70;12.25;;;;;;;16.73;84.54;101894.63;5035439;28;20630;-62
2021/08/24 01:02:49;;;;;;;24.45;11.63;;;;;;;17.11;83.24;101889.22;5053258;28;20053;-62
2021/08/24 01:05:17;;;;;;;23.75;11.52;;;;;;;17.16;82.58;101895.44;5053259;28;20049;-62
2021/08/24 01:07:53;;;;;;;22.20;11.20;;;;;;;17.16;81.91;101889.88;5052239;28;20059;-62
2021/08/24 01:10:34;;;;;;;19.85;10.45;;;;;;;17.18;82.23;101884.81;5053309;28;20060;-62
2021/08/24 01:13:25;;;;;;;19.33;10.82;;;;;;;17.15;81.94;101890.22;5045213;28;20053;-62
2021/08/24 01:16:15;;;;;;;26.65;11.13;;;;;;;16.91;83.88;101884.34;5032234;28;20053;-65
2021/08/24 01:19:01;;;;;;;19.75;10.40;;;;;;;17.00;83.41;101874.81;5032310;28;20431;-62
2021/08/24 01:21:46;;;;;;;23.30;10.90;;;;;;;16.95;83.42;101891.69;5036904;28;20050;-62
2021/08/24 01:24:26;;;;;;;19.77;10.23;;;;;;;16.91;83.49;101879.59;5037095;28;20515;-62
2021/08/24 01:27:10;;;;;;;31.38;11.13;;;;;;;16.86;83.90;101874.16;5019869;28;20057;-62
2021/08/24 01:29:44;;;;;;;28.48;11.90;;;;;;;16.79;84.35;101871.06;5019800;28;20072;-63
2021/08/24 01:32:26;;;;;;;25.73;10.95;;;;;;;16.77;84.64;101867.81;5035706;28;20088;-62
2021/08/24 01:35:09;;;;;;;25.23;11.20;;;;;;;16.67;85.44;101868.09;5036010;28;20065;-63
2021/08/24 01:37:51;;;;;;;20.15;11.48;;;;;;;16.70;85.14;101870.25;5035927;28;20045;-62
2021/08/24 01:40:30;;;;;;;27.40;11.63;;;;;;;16.72;85.31;101871.56;5035916;28;20053;-62
2021/08/24 01:42:58;;;;;;;20.42;11.27;;;;;;;16.79;85.28;101869.09;5035585;28;20045;-62
2021/08/24 01:45:35;;;;;;;25.80;12.68;;;;;;;16.53;85.95;101868.25;5036023;28;20041;-62
2021/08/24 01:48:24;;;;;;;23.83;11.95;;;;;;;16.46;86.82;101870.72;5036966;28;20523;-63
2021/08/24 01:50:57;;;;;;;19.30;10.70;;;;;;;16.81;85.84;101866.81;5036762;28;20045;-62
2021/08/24 01:53:31;;;;;;;22.98;11.80;;;;;;;16.89;84.91;101871.53;5035477;28;20056;-62
2021/08/24 01:56:22;;;;;;;19.73;11.75;;;;;;;16.79;85.14;101869.09;5019041;28;20053;-62
2021/08/24 01:59:14;;;;;;;21.02;11.57;;;;;;;16.78;85.21;101870.25;5034982;28;20045;-63
2021/08/24 02:02:06;;;;;;;20.20;11.65;;;;;;;16.89;84.37;101860.41;5035527;28;20076;-62
2021/08/24 02:04:53;;;;;;;27.02;11.95;;;;;;;17.25;83.00;101871.19;5030288;28;20431;-63
2021/08/24 02:07:20;;;;;;;27.30;12.05;;;;;;;17.10;82.79;101868.94;5035108;28;20060;-62
2021/08/24 02:09:52;;;;;;;25.13;11.82;;;;;;;16.87;84.80;101873.03;5034964;28;20064;-63
2021/08/24 02:12:22;;;;;;;27.55;12.77;;;;;;;17.05;83.70;101877.44;5035833;28;20049;-62
2021/08/24 02:14:50;;;;;;;24.23;11.85;;;;;;;16.97;84.49;101878.25;5055290;28;20488;-63
2021/08/24 02:17:20;;;;;;;22.67;11.23;;;;;;;16.99;83.84;101881.53;5055009;28;20063;-62
2021/08/24 02:19:52;;;;;;;24.80;12.73;;;;;;;17.06;83.30;101867.13;5055217;28;20049;-63
2021/08/24 02:22:29;;;;;;;20.95;11.98;;;;;;;16.96;84.04;101878.59;5056077;28;20045;-62
2021/08/24 02:25:12;;;;;;;29.35;13.30;;;;;;;17.02;84.00;101868.91;5054736;28;20048;-62
2021/08/24 02:27:43;;;;;;;22.13;11.93;;;;;;;17.07;83.70;101866.00;5038307;28;20044;-62
2021/08/24 02:30:11;;;;;;;30.10;13.82;;;;;;;16.93;84.18;101882.03;5055968;28;20049;-62
2021/08/24 02:32:44;;;;;;;31.42;14.23;;;;;;;16.63;85.99;101873.50;5054168;28;20072;-62
2021/08/24 02:35:22;;;;;;;23.40;13.25;;;;;;;16.58;86.81;101875.66;5055892;28;20048;-62
2021/08/24 02:38:05;;;;;;;26.13;15.00;;;;;;;16.50;86.84;101868.09;5054590;28;20056;-62
2021/08/24 02:40:51;;;;;;;25.38;14.55;;;;;;;16.60;86.91;101871.38;5054565;28;20060;-62
2021/08/24 02:43:23;;;;;;;29.08;14.32;;;;;;;16.62;86.48;101874.66;5054404;28;20052;-69
2021/08/24 02:45:57;;;;;;;26.48;16.05;;;;;;;16.63;86.62;101875.50;5055904;28;20051;-70
2021/08/24 02:48:25;;;;;;;26.17;15.63;;;;;;;16.64;87.24;101872.38;5055726;28;20033;-70
2021/08/24 02:50:53;;;;;;;22.88;14.32;;;;;;;16.84;85.97;101866.16;5054500;28;20045;-69
2021/08/24 02:53:21;;;;;;;25.75;15.40;;;;;;;16.82;85.92;101874.00;5054321;28;20076;-70
2021/08/24 02:55:50;;;;;;;26.08;15.43;;;;;;;17.00;85.06;101874.81;5055870;28;20060;-63
2021/08/24 02:58:18;;;;;;;26.10;15.43;;;;;;;16.84;85.46;101868.94;5020915;28;20060;-63
2021/08/24 03:00:47;;;;;;;26.52;16.83;;;;;;;16.56;87.51;101873.16;5054769;28;20508;-69
2021/08/24 03:03:15;;;;;;;26.65;16.63;;;;;;;16.60;87.89;101867.78;5054432;28;20083;-70
2021/08/24 03:05:44;;;;;;;26.83;17.50;;;;;;;16.66;87.91;101863.69;5055521;28;20048;-69
2021/08/24 03:08:12;;;;;;;29.63;17.98;;;;;;;16.64;87.68;101865.97;5055356;28;20052;-69
2021/08/24 03:10:42;;;;;;;32.85;18.63;;;;;;;16.72;87.09;101867.94;5055291;28;20048;-69
2021/08/24 03:13:15;;;;;;;29.23;18.38;;;;;;;16.75;86.88;101870.09;5047069;28;20061;-70
2021/08/24 03:15:52;;;;;;;35.28;19.83;;;;;;;16.76;86.64;101863.38;5017285;28;20054;-62
2021/08/24 03:18:47;;;;;;;30.67;19.77;;;;;;;16.60;88.05;101865.00;5035254;28;20052;-62
2021/08/24 03:21:18;;;;;;;27.75;20.13;;;;;;;16.64;88.23;101855.69;5032335;28;20053;-70
2021/08/24 03:23:47;;;;;;;32.70;21.80;;;;;;;16.50;88.46;101868.91;5016538;28;20378;-63
2021/08/24 03:26:20;;;;;;;31.42;21.55;;;;;;;16.57;88.24;101868.44;5001319;28;20053;-62
2021/08/24 03:28:47;;;;;;;36.58;22.45;;;;;;;16.58;88.41;101864.53;5033693;28;20136;-62
2021/08/24 03:31:16;;;;;;;31.58;22.38;;;;;;;16.53;88.57;101859.09;5017433;28;20064;-62
2021/08/24 03:33:44;;;;;;;30.83;22.27;;;;;;;16.59;88.11;101864.19;5033200;28;20061;-63
2021/08/24 03:36:12;;;;;;;33.78;24.13;;;;;;;16.66;88.10;101860.91;5034804;28;20496;-62
2021/08/24 03:38:40;;;;;;;34.40;24.55;;;;;;;16.49;88.44;101866.47;5034510;28;20046;-62
2021/08/24 03:41:10;;;;;;;33.83;26.33;;;;;;;16.34;89.44;101855.75;5034980;28;20065;-62
2021/08/24 03:43:38;;;;;;;35.92;26.65;;;;;;;16.36;89.67;101865.44;5033663;28;20075;-62
2021/08/24 03:46:05;;;;;;;35.17;26.55;;;;;;;16.32;89.97;101860.84;5032672;28;20604;-62
2021/08/24 03:48:33;;;;;;;37.88;26.55;;;;;;;16.40;89.78;101871.16;5034585;28;20045;-68
2021/08/24 03:51:00;;;;;;;37.60;27.15;;;;;;;16.29;90.36;101869.81;5032727;28;20412;-62
2021/08/24 03:53:27;;;;;;;39.50;27.45;;;;;;;16.37;90.23;101869.84;5034293;28;20065;-62
2021/08/24 03:55:55;;;;;;;33.90;27.52;;;;;;;16.33;89.70;101873.59;5032971;28;20060;-62
2021/08/24 03:58:22;;;;;;;32.25;26.70;;;;;;;16.35;89.92;101868.53;5034464;28;20060;-71
2021/08/24 04:00:49;;;;;;;39.83;27.80;;;;;;;16.19;90.60;101867.34;5034938;28;20064;-71
2021/08/24 04:03:17;;;;;;;35.92;28.13;;;;;;;16.25;90.65;101869.66;5034231;28;20057;-69
2021/08/24 04:05:44;;;;;;;41.85;28.10;;;;;;;16.33;90.07;101874.44;5033045;28;20064;-62
2021/08/24 04:08:12;;;;;;;37.53;27.83;;;;;;;16.35;89.57;101866.56;5034260;28;20049;-63
2021/08/24 04:10:40;;;;;;;33.53;26.83;;;;;;;16.55;88.34;101874.31;5034001;28;20163;-63
2021/08/24 04:13:07;;;;;;;35.90;26.63;;;;;;;16.70;87.45;101873.03;5041380;28;20049;-61
2021/08/24 04:15:35;;;;;;;36.50;26.63;;;;;;;16.76;87.16;101869.75;5054307;28;20048;-69
2021/08/24 04:18:03;;;;;;;36.03;25.35;;;;;;;16.88;86.27;101873.88;5053042;28;20056;-70
2021/08/24 04:20:30;;;;;;;34.17;27.05;;;;;;;16.47;88.63;101880.69;5054618;28;20044;-69
2021/08/24 04:22:57;;;;;;;33.85;26.80;;;;;;;16.46;88.68;101881.81;5052835;28;20045;-69
2021/08/24 04:25:25;;;;;;;37.30;28.33;;;;;;;16.55;88.06;101879.06;5052547;28;20048;-62
2021/08/24 04:27:52;;;;;;;38.53;29.05;;;;;;;16.45;87.88;101887.69;5036307;28;20049;-62
2021/08/24 04:30:20;;;;;;;34.35;28.38;;;;;;;16.33;88.22;101887.50;5053958;28;20044;-70
2021/08/24 04:32:48;;;;;;;37.75;28.58;;;;;;;16.27;89.75;101886.00;5054021;28;20053;-70
2021/08/24 04:35:17;;;;;;;36.35;27.02;;;;;;;16.37;88.66;101885.72;5052109;28;20534;-70
2021/08/24 04:37:44;;;;;;;40.55;27.20;;;;;;;16.59;87.80;101885.63;5053729;28;20056;-70
2021/08/24 04:40:12;;;;;;;33.95;27.95;;;;;;;16.58;87.26;101884.00;5053625;28;20503;-70
2021/08/24 04:42:40;;;;;;;38.92;28.48;;;;;;;16.70;86.76;101889.72;5052529;28;20053;-70
2021/08/24 04:45:08;;;;;;;34.75;26.63;;;;;;;16.70;86.63;101893.31;5053347;28;20052;-71
2021/08/24 04:47:35;;;;;;;35.50;28.33;;;;;;;16.23;88.62;101893.38;5053690;28;20057;-62
2021/08/24 04:50:04;;;;;;;37.47;27.67;;;;;;;16.14;89.84;101895.31;5052111;28;20041;-70
2021/08/24 04:52:32;;;;;;;39.72;28.60;;;;;;;16.14;89.31;101889.75;5053847;28;20049;-70
2021/08/24 04:54:59;;;;;;;39.35;28.65;;;;;;;16.33;89.03;101890.28;5051578;28;20053;-70
2021/08/24 04:57:26;;;;;;;41.92;29.92;;;;;;;16.11;89.28;101893.19;5053514;28;20044;-70
2021/08/24 04:59:53;;;;;;;36.90;27.20;;;;;;;16.14;90.09;101895.31;5053424;28;20527;-70
2021/08/24 05:02:21;;;;;;;37.80;28.58;;;;;;;15.99;90.26;101895.75;5053490;28;20055;-62
2021/08/24 05:04:48;;;;;;;40.35;28.80;;;;;;;15.97;90.66;101898.81;5052062;28;20063;-62
2021/08/24 05:07:16;;;;;;;36.67;28.38;;;;;;;15.96;91.00;101905.53;5052161;28;20052;-62
2021/08/24 05:09:43;;;;;;;42.65;28.98;;;;;;;16.12;90.41;101895.63;5053082;28;20045;-61
2021/08/24 05:12:10;;;;;;;34.67;27.92;;;;;;;16.19;89.15;101903.50;5052025;28;20511;-63
2021/08/24 05:14:37;;;;;;;37.95;27.60;;;;;;;16.17;89.27;101901.03;5031402;28;20058;-63
2021/08/24 05:17:04;;;;;;;38.92;27.00;;;;;;;16.19;89.30;101897.94;5033374;28;20042;-63
2021/08/24 05:19:32;;;;;;;40.05;26.67;;;;;;;16.18;88.93;101907.44;5033298;28;20045;-70
2021/08/24 05:21:59;;;;;;;40.08;27.15;;;;;;;16.30;89.00;101910.41;5032418;28;20062;-70
2021/08/24 05:24:27;;;;;;;35.42;26.00;;;;;;;16.51;87.44;101903.13;5031782;28;20050;-62
2021/08/24 05:26:54;;;;;;;38.40;27.67;;;;;;;16.44;87.43;101906.31;5015734;28;20045;-63
2021/08/24 05:29:21;;;;;;;41.15;26.27;;;;;;;16.50;86.85;101895.91;5033346;28;20041;-62
2021/08/24 05:31:49;;;;;;;35.00;25.73;;;;;;;16.40;87.35;101910.09;5034052;28;20481;-70
2021/08/24 05:34:16;;;;;;;36.83;26.17;;;;;;;16.45;87.45;101910.78;5032450;28;20500;-69
2021/08/24 05:36:43;;;;;;;35.20;24.80;;;;;;;16.50;86.61;101916.22;5033751;28;20117;-69
2021/08/24 05:39:11;;;;;;;31.35;24.42;;;;;;;16.59;86.57;101913.44;5032954;28;20044;-69
2021/08/24 05:41:39;;;;;;;34.53;24.17;;;;;;;16.62;86.25;101915.56;5033713;28;20053;-70
2021/08/24 05:44:07;;;;;;;33.65;23.92;;;;;;;16.55;85.84;101921.63;5033323;28;20057;-70
2021/08/24 05:46:35;;;;;;;39.38;25.13;;;;;;;16.28;87.26;101921.03;5033116;28;20426;-71
2021/08/24 05:49:03;;;;;;;32.03;23.05;;;;;;;16.04;88.24;101920.63;5033179;28;20049;-70
2021/08/24 05:51:30;;;;;;;33.40;24.25;;;;;;;16.12;88.58;101917.03;5033222;28;20045;-70
2021/08/24 05:53:57;;;;;;;31.92;22.33;;;;;;;16.26;87.61;101913.00;5033108;28;20060;-70
2021/08/24 05:56:25;;;;;;;32.60;23.35;;;;;;;16.47;87.06;101907.69;5031902;28;20057;-70
2021/08/24 05:58:52;;;;;;;36.50;22.88;;;;;;;16.40;86.56;101918.44;5033069;28;20050;-70
2021/08/24 06:01:25;;;;;;;28.67;22.05;;;;;;;16.10;87.42;101917.38;5033415;28;20053;-69
2021/08/24 06:03:54;;;;;;;41.03;22.67;;;;;;;16.21;87.63;101929.00;5031579;28;20116;-70
2021/08/24 06:06:23;;;;;;;30.95;21.55;;;;;;;16.33;86.78;101929.22;5032359;28;20484;-70
2021/08/24 06:08:50;;;;;;;32.05;21.33;;;;;;;16.70;84.94;101923.91;5035433;28;20053;-71
2021/08/24 06:11:23;;;;;;;29.38;21.33;;;;;;;16.87;84.20;101925.91;5036858;28;20064;-70
2021/08/24 06:13:51;;;;;;;31.13;21.08;;;;;;;16.57;84.62;101919.34;5049757;28;20059;-70
2021/08/24 06:16:18;;;;;;;33.33;21.15;;;;;;;16.40;85.42;101924.81;5056334;28;20059;-71
2021/08/24 06:18:57;;;;;;;29.30;20.75;;;;;;;16.27;86.47;101933.28;5057291;28;20049;-71
2021/08/24 06:21:26;;;;;;;28.55;20.25;;;;;;;16.52;85.15;101916.72;5057065;28;20044;-64
2021/08/24 06:23:54;;;;;;;29.90;20.83;;;;;;;16.72;84.29;101915.25;5056600;28;20052;-70
2021/08/24 06:26:22;;;;;;;34.13;19.65;;;;;;;16.63;83.56;101920.00;5056418;28;20056;-69
2021/08/24 06:28:49;;;;;;;26.75;20.13;;;;;;;16.34;85.59;101919.72;5056773;28;20045;-70
2021/08/24 06:31:21;;;;;;;32.78;20.13;;;;;;;16.46;85.60;101929.09;5056367;28;20053;-71
2021/08/24 06:33:48;;;;;;;29.25;19.85;;;;;;;16.29;85.57;101925.44;5056596;28;20068;-70
2021/08/24 06:36:16;;;;;;;28.88;20.08;;;;;;;16.51;85.34;101922.59;5055170;28;20060;-70
2021/08/24 06:38:44;;;;;;;28.17;19.83;;;;;;;16.43;85.02;101921.38;5054930;28;20436;-69
2021/08/24 06:41:14;;;;;;;26.90;19.37;;;;;;;16.43;85.29;101921.38;5055038;28;20053;-63
2021/08/24 06:43:41;;;;;;;26.67;20.13;;;;;;;16.61;84.59;101917.53;5038370;28;20045;-62
2021/08/24 06:46:09;;;;;;;30.55;19.50;;;;;;;16.66;84.33;101919.34;5055990;28;20048;-64
2021/08/24 06:48:36;;;;;;;30.23;19.92;;;;;;;16.70;83.77;101925.91;5055962;28;20045;-64
2021/08/24 06:51:04;;;;;;;29.17;18.95;;;;;;;16.86;83.31;101925.09;5055681;28;20052;-63
2021/08/24 06:53:31;;;;;;;26.92;18.25;;;;;;;16.82;82.80;101928.84;5055455;28;20052;-63
2021/08/24 06:55:58;;;;;;;29.27;19.40;;;;;;;16.92;82.68;101924.91;5055392;28;20489;-63
2021/08/24 06:58:26;;;;;;;29.58;19.67;;;;;;;16.62;83.52;101940.59;5055109;28;20047;-62
2021/08/24 07:00:54;;;;;;;28.60;18.88;;;;;;;16.59;83.93;101924.56;5055981;28;20045;-62
2021/08/24 07:03:22;;;;;;;25.70;18.98;;;;;;;16.72;83.42;101934.72;5055568;28;20041;-62
2021/08/24 07:05:49;;;;;;;24.55;17.60;;;;;;;16.84;82.74;101935.72;5037055;28;20504;-63
2021/08/24 07:08:18;;;;;;;29.98;19.83;;;;;;;16.79;82.63;101932.28;5054299;28;20049;-63
2021/08/24 07:10:47;;;;;;;26.17;18.83;;;;;;;16.88;82.96;101933.09;5054003;28;20045;-62
2021/08/24 07:13:19;;;;;;;27.98;19.17;;;;;;;16.78;83.06;101927.88;5046180;28;20466;-62
2021/08/24 07:15:47;;;;;;;29.52;18.42;;;;;;;16.86;82.69;101925.09;5035325;28;20060;-62
2021/08/24 07:18:14;;;;;;;29.65;18.65;;;;;;;16.95;82.31;101929.81;5035379;28;20591;-63
2021/08/24 07:20:41;;;;;;;26.67;18.13;;;;;;;17.00;81.50;101924.91;5035273;28;20049;-63
2021/08/24 07:23:09;;;;;;;29.88;18.20;;;;;;;16.85;81.92;101922.63;5033502;28;20061;-62
2021/08/24 07:25:39;;;;;;;31.42;18.55;;;;;;;16.91;82.07;101926.91;5034819;28;20405;-63
2021/08/24 07:28:10;;;;;;;30.48;17.98;;;;;;;16.98;81.98;101932.78;5035302;28;20053;-63
2021/08/24 07:30:39;;;;;;;26.30;18.05;;;;;;;17.04;81.68;101927.88;5035182;28;20053;-62
2021/08/24 07:33:07;;;;;;;25.80;18.27;;;;;;;17.20;80.78;101929.03;5034922;28;20049;-63
2021/08/24 07:35:34;;;;;;;28.20;18.23;;;;;;;17.18;80.50;101931.31;5033243;28;20057;-63
2021/08/24 07:38:02;;;;;;;28.38;17.40;;;;;;;17.27;79.94;101934.91;5035016;28;20064;-63
2021/08/24 07:40:30;;;;;;;28.35;16.88;;;;;;;17.50;79.68;101923.31;5032633;28;20049;-63
2021/08/24 07:42:57;;;;;;;27.58;17.42;;;;;;;17.61;78.77;101923.75;5034787;28;20064;-62
2021/08/24 07:45:25;;;;;;;24.73;16.58;;;;;;;17.84;77.36;101925.16;5034757;28;20049;-62
2021/08/24 07:47:53;;;;;;;25.35;17.35;;;;;;;17.53;78.44;101925.41;5033628;28;20057;-62
2021/08/24 07:50:20;;;;;;;27.23;16.83;;;;;;;17.30;79.56;101932.28;5034621;28;20073;-62
2021/08/24 07:52:50;;;;;;;25.60;17.33;;;;;;;17.37;79.66;101921.47;5034715;28;20370;-63
2021/08/24 07:55:18;;;;;;;22.27;16.33;;;;;;;17.85;78.20;101924.81;5034206;28;20056;-62
2021/08/24 07:57:46;;;;;;;23.92;15.73;;;;;;;18.03;76.54;101922.00;5034680;28;20509;-63
2021/08/24 08:00:13;;;;;;;21.60;15.50;;;;;;;17.89;76.27;101913.81;5034540;28;20049;-63
2021/08/24 08:02:41;;;;;;;20.25;16.30;;;;;;;17.99;75.98;101919.06;5032954;28;20090;-63
2021/08/24 08:05:09;;;;;;;22.77;16.58;;;;;;;17.92;76.29;101922.34;5032874;28;20060;-62
2021/08/24 08:07:38;;;;;;;23.17;15.43;;;;;;;17.88;76.71;101923.34;5034371;28;20057;-63
2021/08/24 08:10:06;;;;;;;28.35;15.02;;;;;;;17.92;76.15;101919.53;5016616;28;20054;-63
2021/08/24 08:12:33;;;;;;;21.50;15.05;;;;;;;18.07;74.91;101923.75;5037073;28;20061;-63
2021/08/24 08:15:03;;;;;;;26.42;14.52;;;;;;;18.27;74.67;101922.22;5053974;28;20048;-62
2021/08/24 08:17:30;;;;;;;25.10;14.10;;;;;;;18.38;74.04;101917.84;5054273;28;20072;-62
2021/08/24 08:19:58;;;;;;;20.63;14.00;;;;;;;18.37;73.82;101922.63;5052738;28;20045;-64
2021/08/24 08:22:25;;;;;;;23.70;14.35;;;;;;;18.36;73.29;101918.19;5054099;28;20052;-62
2021/08/24 08:24:55;;;;;;;24.73;12.70;;;;;;;18.42;73.05;101916.91;5053724;28;20048;-63
2021/08/24 08:27:22;;;;;;;21.27;12.98;;;;;;;18.54;71.51;101916.16;5054138;28;20044;-63
2021/08/24 08:29:49;;;;;;;22.77;11.95;;;;;;;18.58;72.01;101914.34;5053641;28;20052;-63
2021/08/24 08:32:21;;;;;;;19.70;11.55;;;;;;;18.68;71.23;101911.97;5052671;28;20045;-63
2021/08/24 08:34:48;;;;;;;18.33;10.48;;;;;;;18.60;69.84;101906.44;5052358;28;20053;-63
2021/08/24 08:37:16;;;;;;;14.25;9.45;;;;;;;18.72;69.66;101907.34;5053641;28;20053;-63
2021/08/24 08:39:43;;;;;;;19.65;10.35;;;;;;;18.74;69.40;101910.59;5053623;28;20518;-63
2021/08/24 08:42:35;;;;;;;22.52;10.50;;;;;;;18.91;69.28;101912.47;5052500;28;20562;-64
2021/08/24 08:45:21;;;;;;;16.73;10.48;;;;;;;19.05;68.77;101921.38;5053478;28;20049;-62
2021/08/24 08:47:52;;;;;;;15.10;9.15;;;;;;;19.12;67.82;101921.66;5053589;28;20385;-65
2021/08/24 08:50:35;;;;;;;13.48;8.68;;;;;;;19.14;67.10;101916.53;5053555;28;20049;-63
2021/08/24 08:53:37;;;;;;;15.95;9.15;;;;;;;19.00;66.07;101921.59;5052265;28;20052;-63
2021/08/24 08:56:11;;;;;;;14.05;7.72;;;;;;;18.90;65.74;101914.41;5053531;28;20063;-63
2021/08/24 08:58:57;;;;;;;13.35;7.53;;;;;;;18.97;65.81;101911.06;5052300;28;20075;-62
2021/08/24 09:01:30;;;;;;;12.55;7.90;;;;;;;19.04;66.11;101912.16;5053601;28;20055;-62
2021/08/24 09:04:31;;;;;;;16.63;7.78;;;;;;;19.16;65.51;101905.03;5035382;28;20049;-63
2021/08/24 09:07:00;;;;;;;14.43;7.93;;;;;;;19.23;64.97;101903.28;5045323;28;20622;-63
2021/08/24 09:09:29;;;;;;;10.75;7.38;;;;;;;19.21;63.83;101913.19;5035519;28;20056;-62
2021/08/24 09:11:56;;;;;;;15.13;6.50;;;;;;;19.22;63.99;101909.22;5053346;28;20056;-63
2021/08/24 09:14:31;;;;;;;12.98;7.40;;;;;;;19.38;63.96;101911.09;5034208;28;20053;-63
2021/08/24 09:17:10;;;;;;;11.13;6.40;;;;;;;19.48;63.16;101907.84;5031823;28;20512;-63
2021/08/24 09:19:50;;;;;;;13.55;6.70;;;;;;;19.48;62.73;101910.66;5032199;28;20045;-63
2021/08/24 09:22:18;;;;;;;13.30;6.82;;;;;;;19.61;62.55;101901.16;5015967;28;20061;-63
2021/08/24 09:24:46;;;;;;;14.63;5.85;;;;;;;19.80;62.14;101895.81;5033342;28;20086;-63
2021/08/24 09:27:22;;;;;;;13.10;5.93;;;;;;;20.15;60.81;101893.41;5033073;28;20642;-64
2021/08/24 09:29:50;;;;;;;10.45;5.00;;;;;;;19.99;59.02;101900.84;5031632;28;20065;-63
2021/08/24 09:32:21;;;;;;;9.20;4.82;;;;;;;19.95;58.14;101895.13;5032080;28;20046;-63
2021/08/24 09:34:51;;;;;;;7.95;4.97;;;;;;;20.08;58.69;101898.75;5033683;28;20416;-62
2021/08/24 09:37:22;;;;;;;15.98;5.57;;;;;;;20.08;59.01;101891.16;5032986;28;20053;-63
2021/08/24 09:39:51;;;;;;;10.63;4.60;;;;;;;20.08;58.10;101907.94;5033486;28;20053;-63
2021/08/24 09:42:29;;;;;;;8.55;4.38;;;;;;;20.05;57.57;101891.88;5034635;28;20460;-70
2021/08/24 09:45:00;;;;;;;10.65;4.13;;;;;;;20.08;56.45;101899.56;5037622;28;20057;-71
2021/08/24 09:47:28;;;;;;;8.80;4.13;;;;;;;20.02;55.68;101902.94;5035481;28;20079;-70
2021/08/24 09:50:03;;;;;;;9.52;4.05;;;;;;;20.17;56.27;101886.31;5035657;28;20048;-70
2021/08/24 09:52:33;;;;;;;10.80;4.63;;;;;;;20.31;56.03;101877.56;5035701;28;20064;-70
2021/08/24 09:55:07;;;;;;;11.43;4.20;;;;;;;20.31;55.78;101887.94;5019502;28;20060;-72
2021/08/24 09:57:46;;;;;;;8.75;3.97;;;;;;;20.38;55.55;101879.78;5035999;28;20045;-71
2021/08/24 10:00:18;;;;;;;6.27;3.80;;;;;;;20.22;55.87;101876.88;5037118;28;20091;-71
2021/08/24 10:02:52;;;;;;;12.50;4.03;;;;;;;20.38;55.30;101865.78;5037089;28;20057;-70
2021/08/24 10:05:20;;;;;;;7.78;4.00;;;;;;;20.66;55.04;101872.28;5035597;28;20057;-71
2021/08/24 10:07:50;;;;;;;10.48;3.83;;;;;;;20.72;52.83;101876.44;5036594;28;20057;-71
2021/08/24 10:10:24;;;;;;;14.30;3.20;;;;;;;20.68;51.46;101867.94;5036474;28;20376;-70
2021/08/24 10:12:53;;;;;;;9.95;3.17;;;;;;;20.81;51.20;101868.72;5041927;28;20504;-70
2021/08/24 10:15:31;;;;;;;6.63;3.15;;;;;;;20.94;50.98;101861.91;5056607;28;20053;-70
2021/08/24 10:18:09;;;;;;;6.10;3.28;;;;;;;20.97;49.46;101858.41;5056409;28;20053;-69
2021/08/24 10:20:38;;;;;;;7.93;3.40;;;;;;;21.00;49.00;101849.31;5056331;28;20049;-70
2021/08/24 10:23:13;;;;;;;7.38;3.63;;;;;;;21.09;48.21;101859.22;5054949;28;20045;-69
2021/08/24 10:25:43;;;;;;;5.32;2.80;;;;;;;21.08;47.60;101856.75;5054756;28;20053;-71
2021/08/24 10:28:23;;;;;;;6.20;3.08;;;;;;;21.19;46.98;101850.28;5055085;28;20053;-70
2021/08/24 10:30:57;;;;;;;8.55;2.85;;;;;;;21.25;46.67;101848.84;5054888;28;20061;-71
2021/08/24 10:33:29;;;;;;;8.85;3.10;;;;;;;21.39;46.67;101847.63;5055038;28;20048;-71
2021/08/24 10:36:12;;;;;;;5.50;3.03;;;;;;;21.32;47.48;101845.44;5056110;28;20699;-70
2021/08/24 10:38:39;;;;;;;7.78;2.95;;;;;;;21.39;46.40;101845.63;5038761;28;20391;-70
2021/08/24 10:41:21;;;;;;;5.95;2.83;;;;;;;21.34;44.65;101853.50;5056673;28;20056;-70
2021/08/24 10:43:51;;;;;;;7.25;3.05;;;;;;;21.27;44.91;101853.28;5056053;28;20075;-70
2021/08/24 10:46:18;;;;;;;;;;;;;;;21.29;43.95;101857.34;5056429;28;20528;-70
2021/08/24 10:48:45;;;;;;;8.02;3.03;;;;;;;21.27;42.87;101868.09;5054605;28;19943;-70
2021/08/24 10:51:19;;;;;;;7.97;2.33;;;;;;;21.20;42.57;101848.28;5055802;28;20060;-70
2021/08/24 10:54:05;;;;;;;5.45;2.50;;;;;;;21.29;41.61;101864.97;5021282;28;20436;-70
2021/08/24 10:57:11;;;;;;;6.15;2.53;;;;;;;21.16;41.79;101858.59;5055512;28;20431;-70
2021/08/24 10:59:47;;;;;;;6.63;2.97;;;;;;;21.15;42.90;101862.56;5033022;28;20065;-70
2021/08/24 11:02:39;;;;;;;5.72;2.80;;;;;;;21.32;43.14;101839.84;5055629;28;20045;-71
2021/08/24 11:05:52;;;;;;;7.05;2.70;;;;;;;21.51;41.67;101841.94;5055135;28;20099;-71
2021/08/24 11:08:48;;;;;;;6.18;2.50;;;;;;;21.68;40.95;101841.59;5012683;28;20767;-69
2021/08/24 11:11:37;;;;;;;6.63;2.50;;;;;;;21.69;40.66;101838.41;5008694;28;20057;-72
2021/08/24 11:14:27;;;;;;;5.93;2.50;;;;;;;21.59;41.60;101836.16;4981496;28;20058;-71
2021/08/24 11:17:08;;;;;;;8.35;3.38;;;;;;;21.67;41.71;101825.94;5000575;28;20070;-71
2021/08/24 11:19:38;;;;;;;4.90;2.58;;;;;;;21.71;41.85;101827.66;5014059;28;20065;-70
2021/08/24 11:22:09;;;;;;;;;;;;;;;21.81;41.05;101831.94;5016093;28;20046;-70
2021/08/24 11:24:47;;;;;;;10.45;2.67;;;;;;;21.85;40.77;101830.84;5015548;28;19921;-71
2021/08/24 11:27:24;;;;;;;6.75;2.70;;;;;;;21.95;40.36;101826.69;5014013;28;20058;-70
2021/08/24 11:29:57;;;;;;;6.63;2.38;;;;;;;21.99;39.71;101814.38;5014144;28;20050;-69
2021/08/24 11:32:37;;;;;;;6.15;2.60;;;;;;;22.05;38.50;101826.97;5014141;28;20057;-71
2021/08/24 11:35:18;;;;;;;4.45;2.40;;;;;;;22.06;38.95;101820.16;4997831;28;20057;-72